sensor_id;sensor_type;location;lat;lon;timestamp;pressure;altitude;pressure_sealevel;temperature;humidity
54042;BME280;41156;51.508;5.406;2023-02-11T00:02:07;103349.44;;;5.65;100.00
54042;BME280;41156;51.508;5.406;2023-02-11T00:05:07;103341.25;;;5.67;100.00
54042;BME280;41156;51.508;5.406;2023-02-11T00:08:08;103336.72;;;5.67;100.00
54042;BME280;41156;51.508;5.406;2023-02-11T00:11:12;103346.50;;;5.68;100.00
54042;BME280;41156;51.508;5.406;2023-02-11T00:14:13;103347.34;;;5.69;100.00
54042;BME280;41156;51.508;5.406;2023-02-11T00:17:14;103346.25;;;5.71;100.00
54042;BME280;41156;51.508;5.406;2023-02-11T00:20:14;103337.22;;;5.72;100.00
54042;BME280;41156;51.508;5.406;2023-02-11T00:23:15;103322.00;;;5.73;100.00
54042;BME280;41156;51.508;5.406;2023-02-11T00:29:16;103331.84;;;5.72;100.00
54042;BME280;41156;51.508;5.406;2023-02-11T00:32:17;103337.34;;;5.71;100.00
54042;BME280;41156;51.508;5.406;2023-02-11T00:35:17;103340.78;;;5.73;100.00
54042;BME280;41156;51.508;5.406;2023-02-11T00:38:17;103336.38;;;5.72;100.00
54042;BME280;41156;51.508;5.406;2023-02-11T00:41:19;103326.50;;;5.72;100.00
54042;BME280;41156;51.508;5.406;2023-02-11T00:44:19;103333.47;;;5.75;100.00
54042;BME280;41156;51.508;5.406;2023-02-11T00:47:20;103327.25;;;5.74;100.00
54042;BME280;41156;51.508;5.406;2023-02-11T00:50:20;103320.16;;;5.73;100.00
54042;BME280;41156;51.508;5.406;2023-02-11T00:53:21;103325.53;;;5.73;100.00
54042;BME280;41156;51.508;5.406;2023-02-11T00:56:21;103320.28;;;5.72;100.00
54042;BME280;41156;51.508;5.406;2023-02-11T00:59:21;103328.44;;;5.70;100.00
54042;BME280;41156;51.508;5.406;2023-02-11T01:02:22;103314.06;;;5.71;100.00
54042;BME280;41156;51.508;5.406;2023-02-11T01:05:23;103326.50;;;5.72;100.00
54042;BME280;41156;51.508;5.406;2023-02-11T01:08:23;103331.00;;;5.72;100.00
54042;BME280;41156;51.508;5.406;2023-02-11T01:11:24;103321.25;;;5.71;100.00
54042;BME280;41156;51.508;5.406;2023-02-11T01:14:24;103331.13;;;5.70;100.00
54042;BME280;41156;51.508;5.406;2023-02-11T01:17:25;103335.53;;;5.71;100.00
54042;BME280;41156;51.508;5.406;2023-02-11T01:20:26;103332.72;;;5.73;100.00
54042;BME280;41156;51.508;5.406;2023-02-11T01:23:27;103331.00;;;5.72;100.00
54042;BME280;41156;51.508;5.406;2023-02-11T01:26:27;103345.38;;;5.71;100.00
54042;BME280;41156;51.508;5.406;2023-02-11T01:29:27;103349.78;;;5.72;100.00
54042;BME280;41156;51.508;5.406;2023-02-11T01:32:27;103344.44;;;5.72;100.00
54042;BME280;41156;51.508;5.406;2023-02-11T01:35:28;103337.22;;;5.72;100.00
54042;BME280;41156;51.508;5.406;2023-02-11T01:38:29;103333.69;;;5.72;100.00
54042;BME280;41156;51.508;5.406;2023-02-11T01:41:29;103331.84;;;5.72;100.00
54042;BME280;41156;51.508;5.406;2023-02-11T01:44:33;103324.81;;;5.71;100.00
54042;BME280;41156;51.508;5.406;2023-02-11T01:47:34;103309.78;;;5.69;100.00
54042;BME280;41156;51.508;5.406;2023-02-11T01:50:35;103316.00;;;5.69;100.00
54042;BME280;41156;51.508;5.406;2023-02-11T01:53:37;103317.00;;;5.68;100.00
54042;BME280;41156;51.508;5.406;2023-02-11T01:56:57;103315.28;;;5.67;100.00
54042;BME280;41156;51.508;5.406;2023-02-11T02:00:33;103307.22;;;5.67;100.00
54042;BME280;41156;51.508;5.406;2023-02-11T02:03:36;103302.72;;;5.68;100.00
54042;BME280;41156;51.508;5.406;2023-02-11T02:06:48;103317.97;;;5.67;100.00
54042;BME280;41156;51.508;5.406;2023-02-11T02:09:57;103299.41;;;5.64;100.00
54042;BME280;41156;51.508;5.406;2023-02-11T02:12:57;103297.84;;;5.62;100.00
54042;BME280;41156;51.508;5.406;2023-02-11T02:16:01;103290.78;;;5.61;100.00
54042;BME280;41156;51.508;5.406;2023-02-11T02:19:37;103301.72;;;5.57;100.00
54042;BME280;41156;51.508;5.406;2023-02-11T02:23:08;103304.03;;;5.51;100.00
54042;BME280;41156;51.508;5.406;2023-02-11T02:26:24;103302.25;;;5.51;100.00
54042;BME280;41156;51.508;5.406;2023-02-11T02:29:44;103308.56;;;5.50;100.00
54042;BME280;41156;51.508;5.406;2023-02-11T02:33:05;103311.25;;;5.50;100.00
54042;BME280;41156;51.508;5.406;2023-02-11T02:39:30;103303.22;;;5.50;100.00
54042;BME280;41156;51.508;5.406;2023-02-11T02:42:32;103301.38;;;5.51;100.00
54042;BME280;41156;51.508;5.406;2023-02-11T02:45:33;103298.69;;;5.51;100.00
54042;BME280;41156;51.508;5.406;2023-02-11T02:48:33;103298.56;;;5.52;100.00
54042;BME280;41156;51.508;5.406;2023-02-11T02:55:07;103289.69;;;5.52;100.00
54042;BME280;41156;51.508;5.406;2023-02-11T02:58:33;103287.84;;;5.52;100.00
54042;BME280;41156;51.508;5.406;2023-02-11T03:04:52;103295.63;;;5.44;100.00
54042;BME280;41156;51.508;5.406;2023-02-11T03:08:01;103298.91;;;5.48;100.00
54042;BME280;41156;51.508;5.406;2023-02-11T03:11:08;103302.47;;;5.48;100.00
54042;BME280;41156;51.508;5.406;2023-02-11T03:14:12;103299.06;;;5.46;100.00
54042;BME280;41156;51.508;5.406;2023-02-11T03:17:15;103292.72;;;5.47;100.00
54042;BME280;41156;51.508;5.406;2023-02-11T03:20:17;103285.50;;;5.48;100.00
54042;BME280;41156;51.508;5.406;2023-02-11T03:23:56;103281.88;;;5.49;100.00
54042;BME280;41156;51.508;5.406;2023-02-11T03:27:04;103281.75;;;5.50;100.00
54042;BME280;41156;51.508;5.406;2023-02-11T03:30:42;103275.66;;;5.48;100.00
54042;BME280;41156;51.508;5.406;2023-02-11T03:33:52;103282.72;;;5.49;100.00
54042;BME280;41156;51.508;5.406;2023-02-11T03:40:26;103284.44;;;5.50;100.00
54042;BME280;41156;51.508;5.406;2023-02-11T03:43:39;103282.72;;;5.49;100.00
54042;BME280;41156;51.508;5.406;2023-02-11T03:46:44;103294.19;;;5.51;100.00
54042;BME280;41156;51.508;5.406;2023-02-11T03:49:48;103307.59;;;5.51;100.00
54042;BME280;41156;51.508;5.406;2023-02-11T03:52:50;103304.03;;;5.51;100.00
54042;BME280;41156;51.508;5.406;2023-02-11T03:55:53;103295.03;;;5.52;100.00
54042;BME280;41156;51.508;5.406;2023-02-11T03:58:54;103297.59;;;5.53;100.00
54042;BME280;41156;51.508;5.406;2023-02-11T04:01:54;103293.09;;;5.54;100.00
54042;BME280;41156;51.508;5.406;2023-02-11T04:04:56;103293.81;;;5.56;100.00
54042;BME280;41156;51.508;5.406;2023-02-11T04:07:56;103282.22;;;5.55;100.00
54042;BME280;41156;51.508;5.406;2023-02-11T04:10:57;103279.44;;;5.57;100.00
54042;BME280;41156;51.508;5.406;2023-02-11T04:13:57;103273.09;;;5.58;100.00
54042;BME280;41156;51.508;5.406;2023-02-11T04:16:58;103269.53;;;5.57;100.00
54042;BME280;41156;51.508;5.406;2023-02-11T04:19:58;103258.81;;;5.57;100.00
54042;BME280;41156;51.508;5.406;2023-02-11T04:22:58;103262.38;;;5.58;100.00
54042;BME280;41156;51.508;5.406;2023-02-11T04:25:58;103255.19;;;5.59;100.00
54042;BME280;41156;51.508;5.406;2023-02-11T04:28:59;103249.81;;;5.59;100.00
54042;BME280;41156;51.508;5.406;2023-02-11T04:31:59;103256.13;;;5.57;100.00
54042;BME280;41156;51.508;5.406;2023-02-11T04:34:59;103252.50;;;5.59;100.00
54042;BME280;41156;51.508;5.406;2023-02-11T04:38:00;103253.56;;;5.56;100.00
54042;BME280;41156;51.508;5.406;2023-02-11T04:41:00;103249.81;;;5.59;100.00
54042;BME280;41156;51.508;5.406;2023-02-11T04:44:00;103254.34;;;5.58;100.00
54042;BME280;41156;51.508;5.406;2023-02-11T04:47:01;103267.63;;;5.60;100.00
54042;BME280;41156;51.508;5.406;2023-02-11T04:50:01;103262.25;;;5.60;100.00
54042;BME280;41156;51.508;5.406;2023-02-11T04:53:01;103274.69;;;5.61;100.00
54042;BME280;41156;51.508;5.406;2023-02-11T04:56:02;103273.72;;;5.62;100.00
54042;BME280;41156;51.508;5.406;2023-02-11T04:59:03;103274.44;;;5.64;100.00
54042;BME280;41156;51.508;5.406;2023-02-11T05:02:03;103275.28;;;5.64;100.00
54042;BME280;41156;51.508;5.406;2023-02-11T05:05:04;103269.78;;;5.66;100.00
54042;BME280;41156;51.508;5.406;2023-02-11T05:08:05;103262.63;;;5.66;100.00
54042;BME280;41156;51.508;5.406;2023-02-11T05:11:07;103272.34;;;5.67;100.00
54042;BME280;41156;51.508;5.406;2023-02-11T05:14:07;103277.59;;;5.69;100.00
54042;BME280;41156;51.508;5.406;2023-02-11T05:17:07;103279.31;;;5.70;100.00
54042;BME280;41156;51.508;5.406;2023-02-11T05:20:08;103273.94;;;5.70;100.00
54042;BME280;41156;51.508;5.406;2023-02-11T05:23:09;103268.59;;;5.70;100.00
54042;BME280;41156;51.508;5.406;2023-02-11T05:26:11;103269.44;;;5.70;100.00
54042;BME280;41156;51.508;5.406;2023-02-11T05:29:11;103271.28;;;5.70;100.00
54042;BME280;41156;51.508;5.406;2023-02-11T05:32:11;103266.88;;;5.69;100.00
54042;BME280;41156;51.508;5.406;2023-02-11T05:35:12;103264.91;;;5.71;100.00
54042;BME280;41156;51.508;5.406;2023-02-11T05:38:12;103260.53;;;5.70;100.00
54042;BME280;41156;51.508;5.406;2023-02-11T05:41:13;103255.16;;;5.70;100.00
54042;BME280;41156;51.508;5.406;2023-02-11T05:44:13;103247.25;;;5.68;100.00
54042;BME280;41156;51.508;5.406;2023-02-11T05:47:13;103249.06;;;5.68;100.00
54042;BME280;41156;51.508;5.406;2023-02-11T05:50:14;103252.72;;;5.67;100.00
54042;BME280;41156;51.508;5.406;2023-02-11T05:53:14;103250.16;;;5.65;100.00
54042;BME280;41156;51.508;5.406;2023-02-11T05:56:14;103258.34;;;5.64;100.00
54042;BME280;41156;51.508;5.406;2023-02-11T05:59:15;103248.56;;;5.63;100.00
54042;BME280;41156;51.508;5.406;2023-02-11T06:02:15;103266.50;;;5.62;100.00
54042;BME280;41156;51.508;5.406;2023-02-11T06:05:15;103256.88;;;5.60;100.00
54042;BME280;41156;51.508;5.406;2023-02-11T06:08:16;103264.94;;;5.60;100.00
54042;BME280;41156;51.508;5.406;2023-02-11T06:11:16;103273.81;;;5.60;100.00
54042;BME280;41156;51.508;5.406;2023-02-11T06:14:17;103267.63;;;5.60;100.00
54042;BME280;41156;51.508;5.406;2023-02-11T06:17:17;103269.31;;;5.61;100.00
54042;BME280;41156;51.508;5.406;2023-02-11T06:20:18;103264.78;;;5.61;100.00
54042;BME280;41156;51.508;5.406;2023-02-11T06:23:18;103272.59;;;5.64;100.00
54042;BME280;41156;51.508;5.406;2023-02-11T06:26:21;103266.25;;;5.65;100.00
54042;BME280;41156;51.508;5.406;2023-02-11T06:29:22;103267.09;;;5.66;100.00
54042;BME280;41156;51.508;5.406;2023-02-11T06:32:22;103268.81;;;5.67;100.00
54042;BME280;41156;51.508;5.406;2023-02-11T06:35:22;103264.19;;;5.69;100.00
54042;BME280;41156;51.508;5.406;2023-02-11T06:38:23;103271.28;;;5.70;100.00
54042;BME280;41156;51.508;5.406;2023-02-11T06:41:23;103270.28;;;5.71;100.00
54042;BME280;41156;51.508;5.406;2023-02-11T06:44:24;103262.09;;;5.72;100.00
54042;BME280;41156;51.508;5.406;2023-02-11T06:47:25;103271.03;;;5.73;100.00
54042;BME280;41156;51.508;5.406;2023-02-11T06:50:25;103277.13;;;5.75;100.00
54042;BME280;41156;51.508;5.406;2023-02-11T06:53:25;103278.81;;;5.76;100.00
54042;BME280;41156;51.508;5.406;2023-02-11T06:56:26;103276.00;;;5.78;100.00
54042;BME280;41156;51.508;5.406;2023-02-11T06:59:26;103283.94;;;5.79;100.00
54042;BME280;41156;51.508;5.406;2023-02-11T07:02:26;103286.50;;;5.81;100.00
54042;BME280;41156;51.508;5.406;2023-02-11T07:05:27;103294.53;;;5.81;100.00
54042;BME280;41156;51.508;5.406;2023-02-11T07:08:27;103290.78;;;5.83;100.00
54042;BME280;41156;51.508;5.406;2023-02-11T07:11:29;103287.09;;;5.84;100.00
54042;BME280;41156;51.508;5.406;2023-02-11T07:14:29;103296.84;;;5.85;100.00
54042;BME280;41156;51.508;5.406;2023-02-11T07:17:29;103301.25;;;5.86;100.00
54042;BME280;41156;51.508;5.406;2023-02-11T07:20:30;103299.31;;;5.88;100.00
54042;BME280;41156;51.508;5.406;2023-02-11T07:23:30;103304.53;;;5.90;100.00
54042;BME280;41156;51.508;5.406;2023-02-11T07:26:31;103307.09;;;5.91;100.00
54042;BME280;41156;51.508;5.406;2023-02-11T07:29:31;103311.47;;;5.92;100.00
54042;BME280;41156;51.508;5.406;2023-02-11T07:32:32;103308.47;;;5.97;100.00
54042;BME280;41156;51.508;5.406;2023-02-11T07:35:33;103310.19;;;5.98;100.00
54042;BME280;41156;51.508;5.406;2023-02-11T07:38:33;103311.75;;;6.01;100.00
54042;BME280;41156;51.508;5.406;2023-02-11T07:41:34;103319.69;;;6.02;100.00
54042;BME280;41156;51.508;5.406;2023-02-11T07:44:35;103322.13;;;6.05;100.00
54042;BME280;41156;51.508;5.406;2023-02-11T07:47:36;103321.88;;;6.08;100.00
54042;BME280;41156;51.508;5.406;2023-02-11T07:50:39;103324.31;;;6.11;100.00
54042;BME280;41156;51.508;5.406;2023-02-11T07:53:40;103326.88;;;6.13;100.00
54042;BME280;41156;51.508;5.406;2023-02-11T07:56:40;103333.81;;;6.16;100.00
54042;BME280;41156;51.508;5.406;2023-02-11T07:59:41;103331.84;;;6.18;100.00
54042;BME280;41156;51.508;5.406;2023-02-11T08:02:41;103331.72;;;6.19;100.00
54042;BME280;41156;51.508;5.406;2023-02-11T08:05:41;103335.03;;;6.23;100.00
54042;BME280;41156;51.508;5.406;2023-02-11T08:08:43;103342.94;;;6.24;100.00
54042;BME280;41156;51.508;5.406;2023-02-11T08:11:43;103337.31;;;6.27;100.00
54042;BME280;41156;51.508;5.406;2023-02-11T08:14:44;103336.25;;;6.30;100.00
54042;BME280;41156;51.508;5.406;2023-02-11T08:17:44;103343.28;;;6.31;100.00
54042;BME280;41156;51.508;5.406;2023-02-11T08:20:45;103347.56;;;6.34;100.00
54042;BME280;41156;51.508;5.406;2023-02-11T08:23:45;103347.47;;;6.35;100.00
54042;BME280;41156;51.508;5.406;2023-02-11T08:26:46;103342.81;;;6.37;100.00
54042;BME280;41156;51.508;5.406;2023-02-11T08:29:46;103348.06;;;6.39;100.00
54042;BME280;41156;51.508;5.406;2023-02-11T08:32:46;103352.22;;;6.43;100.00
54042;BME280;41156;51.508;5.406;2023-02-11T08:35:47;103350.25;;;6.45;100.00
54042;BME280;41156;51.508;5.406;2023-02-11T08:38:47;103352.69;;;6.48;100.00
54042;BME280;41156;51.508;5.406;2023-02-11T08:41:50;103360.47;;;6.51;100.00
54042;BME280;41156;51.508;5.406;2023-02-11T08:44:51;103355.47;;;6.58;100.00
54042;BME280;41156;51.508;5.406;2023-02-11T08:47:51;103353.50;;;6.60;100.00
54042;BME280;41156;51.508;5.406;2023-02-11T08:50:52;103356.91;;;6.62;100.00
54042;BME280;41156;51.508;5.406;2023-02-11T08:53:53;103361.19;;;6.64;100.00
54042;BME280;41156;51.508;5.406;2023-02-11T08:56:54;103353.72;;;6.68;100.00
54042;BME280;41156;51.508;5.406;2023-02-11T08:59:54;103357.25;;;6.69;100.00
54042;BME280;41156;51.508;5.406;2023-02-11T09:02:54;103359.69;;;6.72;100.00
54042;BME280;41156;51.508;5.406;2023-02-11T09:05:55;103356.75;;;6.75;100.00
54042;BME280;41156;51.508;5.406;2023-02-11T09:08:56;103368.94;;;6.79;100.00
54042;BME280;41156;51.508;5.406;2023-02-11T09:11:57;103365.03;;;6.83;100.00
54042;BME280;41156;51.508;5.406;2023-02-11T09:15:00;103368.19;;;6.88;100.00
54042;BME280;41156;51.508;5.406;2023-02-11T09:18:00;103368.78;;;6.92;100.00
54042;BME280;41156;51.508;5.406;2023-02-11T09:21:03;103365.97;;;6.93;100.00
54042;BME280;41156;51.508;5.406;2023-02-11T09:24:03;103369.25;;;6.97;100.00
54042;BME280;41156;51.508;5.406;2023-02-11T09:27:05;103374.22;;;7.01;100.00
54042;BME280;41156;51.508;5.406;2023-02-11T09:30:06;103375.66;;;7.06;100.00
54042;BME280;41156;51.508;5.406;2023-02-11T09:33:07;103381.75;;;7.08;100.00
54042;BME280;41156;51.508;5.406;2023-02-11T09:36:07;103382.25;;;7.13;100.00
54042;BME280;41156;51.508;5.406;2023-02-11T09:39:15;103388.09;;;7.18;100.00
54042;BME280;41156;51.508;5.406;2023-02-11T09:42:39;103399.31;;;7.23;100.00
54042;BME280;41156;51.508;5.406;2023-02-11T09:45:42;103401.88;;;7.25;100.00
54042;BME280;41156;51.508;5.406;2023-02-11T09:48:45;103401.59;;;7.28;100.00
54042;BME280;41156;51.508;5.406;2023-02-11T09:51:48;103393.13;;;7.32;100.00
54042;BME280;41156;51.508;5.406;2023-02-11T09:54:59;103406.19;;;7.37;100.00
54042;BME280;41156;51.508;5.406;2023-02-11T09:58:02;103398.84;;;7.39;100.00
54042;BME280;41156;51.508;5.406;2023-02-11T10:01:30;103405.09;;;7.39;100.00
54042;BME280;41156;51.508;5.406;2023-02-11T10:04:56;103409.09;;;7.45;100.00
54042;BME280;41156;51.508;5.406;2023-02-11T10:08:21;103406.00;;;7.50;100.00
54042;BME280;41156;51.508;5.406;2023-02-11T10:11:36;103407.44;;;7.54;100.00
54042;BME280;41156;51.508;5.406;2023-02-11T10:15:05;103407.88;;;7.59;100.00
54042;BME280;41156;51.508;5.406;2023-02-11T10:22:05;103419.41;;;7.61;100.00
54042;BME280;41156;51.508;5.406;2023-02-11T10:25:20;103440.75;;;7.63;100.00
54042;BME280;41156;51.508;5.406;2023-02-11T10:28:30;103432.56;;;7.64;100.00
54042;BME280;41156;51.508;5.406;2023-02-11T10:31:37;103444.06;;;7.66;100.00
54042;BME280;41156;51.508;5.406;2023-02-11T10:34:40;103435.88;;;7.68;100.00
54042;BME280;41156;51.508;5.406;2023-02-11T10:37:40;103438.56;;;7.68;100.00
54042;BME280;41156;51.508;5.406;2023-02-11T10:40:41;103435.88;;;7.68;100.00
54042;BME280;41156;51.508;5.406;2023-02-11T10:43:42;103439.41;;;7.68;100.00
54042;BME280;41156;51.508;5.406;2023-02-11T10:46:42;103435.56;;;7.71;100.00
54042;BME280;41156;51.508;5.406;2023-02-11T10:49:45;103444.41;;;7.73;100.00
54042;BME280;41156;51.508;5.406;2023-02-11T10:52:46;103445.25;;;7.73;100.00
54042;BME280;41156;51.508;5.406;2023-02-11T10:55:54;103452.19;;;7.76;100.00
54042;BME280;41156;51.508;5.406;2023-02-11T10:59:01;103461.97;;;7.77;100.00
54042;BME280;41156;51.508;5.406;2023-02-11T11:02:18;103459.16;;;7.78;100.00
54042;BME280;41156;51.508;5.406;2023-02-11T11:05:27;103457.19;;;7.81;100.00
54042;BME280;41156;51.508;5.406;2023-02-11T11:08:48;103463.28;;;7.83;100.00
54042;BME280;41156;51.508;5.406;2023-02-11T11:11:52;103465.00;;;7.84;100.00
54042;BME280;41156;51.508;5.406;2023-02-11T11:14:55;103456.66;;;7.87;100.00
54042;BME280;41156;51.508;5.406;2023-02-11T11:18:16;103461.25;;;7.96;100.00
54042;BME280;41156;51.508;5.406;2023-02-11T11:21:25;103457.88;;;8.04;100.00
54042;BME280;41156;51.508;5.406;2023-02-11T11:24:39;103459.91;;;8.11;100.00
54042;BME280;41156;51.508;5.406;2023-02-11T11:27:48;103457.66;;;8.17;100.00
54042;BME280;41156;51.508;5.406;2023-02-11T11:30:51;103467.91;;;8.23;100.00
54042;BME280;41156;51.508;5.406;2023-02-11T11:33:55;103460.53;;;8.25;100.00
54042;BME280;41156;51.508;5.406;2023-02-11T11:36:58;103467.91;;;8.23;100.00
54042;BME280;41156;51.508;5.406;2023-02-11T11:43:17;103471.03;;;8.28;100.00
54042;BME280;41156;51.508;5.406;2023-02-11T11:46:45;103470.63;;;8.32;100.00
54042;BME280;41156;51.508;5.406;2023-02-11T11:53:17;103483.56;;;8.39;100.00
54042;BME280;41156;51.508;5.406;2023-02-11T11:56:28;103469.81;;;8.42;100.00
54042;BME280;41156;51.508;5.406;2023-02-11T11:59:29;103466.03;;;8.44;100.00
54042;BME280;41156;51.508;5.406;2023-02-11T12:09:50;103469.88;;;8.51;100.00
54042;BME280;41156;51.508;5.406;2023-02-11T12:13:11;103464.94;;;8.57;100.00
54042;BME280;41156;51.508;5.406;2023-02-11T12:17:04;103459.84;;;8.63;100.00
54042;BME280;41156;51.508;5.406;2023-02-11T12:23:28;103461.41;;;8.76;100.00
54042;BME280;41156;51.508;5.406;2023-02-11T12:30:15;103446.25;;;8.94;100.00
54042;BME280;41156;51.508;5.406;2023-02-11T12:43:22;103440.88;;;9.04;100.00
54042;BME280;41156;51.508;5.406;2023-02-11T12:49:38;103439.47;;;9.10;100.00
54042;BME280;41156;51.508;5.406;2023-02-11T13:03:21;103424.09;;;9.59;100.00
54042;BME280;41156;51.508;5.406;2023-02-11T13:06:41;103422.66;;;9.74;100.00
54042;BME280;41156;51.508;5.406;2023-02-11T13:13:18;103424.28;;;9.95;100.00
54042;BME280;41156;51.508;5.406;2023-02-11T13:16:32;103419.28;;;10.00;100.00
54042;BME280;41156;51.508;5.406;2023-02-11T13:19:43;103417.97;;;10.04;100.00
54042;BME280;41156;51.508;5.406;2023-02-11T13:22:51;103420.00;;;10.02;100.00
54042;BME280;41156;51.508;5.406;2023-02-11T13:26:30;103420.75;;;9.94;100.00
54042;BME280;41156;51.508;5.406;2023-02-11T13:30:02;103417.31;;;9.92;100.00
54042;BME280;41156;51.508;5.406;2023-02-11T13:33:05;103418.91;;;9.85;100.00
54042;BME280;41156;51.508;5.406;2023-02-11T13:36:17;103410.56;;;9.78;100.00
54042;BME280;41156;51.508;5.406;2023-02-11T13:39:19;103414.41;;;9.76;100.00
54042;BME280;41156;51.508;5.406;2023-02-11T13:42:20;103417.13;;;9.76;100.00
54042;BME280;41156;51.508;5.406;2023-02-11T13:48:31;103412.25;;;9.79;100.00
54042;BME280;41156;51.508;5.406;2023-02-11T13:51:41;103411.50;;;9.87;100.00
54042;BME280;41156;51.508;5.406;2023-02-11T13:54:46;103405.13;;;9.88;100.00
54042;BME280;41156;51.508;5.406;2023-02-11T14:01:07;103409.47;;;9.99;100.00
54042;BME280;41156;51.508;5.406;2023-02-11T14:04:22;103412.75;;;10.03;100.00
54042;BME280;41156;51.508;5.406;2023-02-11T14:08:12;103411.03;;;10.02;100.00
54042;BME280;41156;51.508;5.406;2023-02-11T14:14:32;103422.09;;;10.08;100.00
54042;BME280;41156;51.508;5.406;2023-02-11T14:17:34;103423.97;;;10.08;100.00
54042;BME280;41156;51.508;5.406;2023-02-11T14:20:37;103422.09;;;10.08;100.00
54042;BME280;41156;51.508;5.406;2023-02-11T14:23:40;103418.56;;;10.08;100.00
54042;BME280;41156;51.508;5.406;2023-02-11T14:26:55;103420.25;;;10.09;100.00
54042;BME280;41156;51.508;5.406;2023-02-11T14:36:58;103421.16;;;9.99;100.00
54042;BME280;41156;51.508;5.406;2023-02-11T14:40:05;103420.41;;;9.97;100.00
54042;BME280;41156;51.508;5.406;2023-02-11T14:43:15;103426.56;;;9.99;100.00
54042;BME280;41156;51.508;5.406;2023-02-11T14:46:19;103423.13;;;9.97;100.00
54042;BME280;41156;51.508;5.406;2023-02-11T14:49:24;103417.31;;;9.92;100.00
54042;BME280;41156;51.508;5.406;2023-02-11T14:52:34;103423.88;;;9.90;100.00
54042;BME280;41156;51.508;5.406;2023-02-11T14:55:40;103425.00;;;9.87;100.00
54042;BME280;41156;51.508;5.406;2023-02-11T14:58:45;103422.59;;;9.84;100.00
54042;BME280;41156;51.508;5.406;2023-02-11T15:01:51;103428.19;;;9.82;100.00
54042;BME280;41156;51.508;5.406;2023-02-11T15:04:53;103426.59;;;9.80;100.00
54042;BME280;41156;51.508;5.406;2023-02-11T15:07:57;103434.00;;;9.78;100.00
54042;BME280;41156;51.508;5.406;2023-02-11T15:10:59;103436.31;;;9.73;100.00
54042;BME280;41156;51.508;5.406;2023-02-11T15:14:33;103439.28;;;9.70;100.00
54042;BME280;41156;51.508;5.406;2023-02-11T15:17:34;103435.88;;;9.68;100.00
54042;BME280;41156;51.508;5.406;2023-02-11T15:20:35;103445.13;;;9.65;100.00
54042;BME280;41156;51.508;5.406;2023-02-11T15:23:36;103449.97;;;9.61;100.00
54042;BME280;41156;51.508;5.406;2023-02-11T15:26:36;103449.41;;;9.58;100.00
54042;BME280;41156;51.508;5.406;2023-02-11T15:29:39;103442.56;;;9.54;100.00
54042;BME280;41156;51.508;5.406;2023-02-11T15:32:42;103445.69;;;9.49;100.00
54042;BME280;41156;51.508;5.406;2023-02-11T15:35:44;103446.72;;;9.48;100.00
54042;BME280;41156;51.508;5.406;2023-02-11T15:38:44;103455.78;;;9.47;100.00
54042;BME280;41156;51.508;5.406;2023-02-11T15:41:44;103463.03;;;9.47;100.00
54042;BME280;41156;51.508;5.406;2023-02-11T15:44:46;103462.47;;;9.43;100.00
54042;BME280;41156;51.508;5.406;2023-02-11T15:47:52;103460.91;;;9.40;100.00
54042;BME280;41156;51.508;5.406;2023-02-11T15:50:55;103464.63;;;9.39;100.00
54042;BME280;41156;51.508;5.406;2023-02-11T15:54:00;103463.75;;;9.39;100.00
54042;BME280;41156;51.508;5.406;2023-02-11T15:57:03;103462.06;;;9.38;100.00
54042;BME280;41156;51.508;5.406;2023-02-11T16:00:04;103456.94;;;9.35;100.00
54042;BME280;41156;51.508;5.406;2023-02-11T16:03:06;103455.38;;;9.32;100.00
54042;BME280;41156;51.508;5.406;2023-02-11T16:06:22;103456.66;;;9.28;100.00
54042;BME280;41156;51.508;5.406;2023-02-11T16:09:25;103455.09;;;9.25;100.00
54042;BME280;41156;51.508;5.406;2023-02-11T16:12:29;103464.47;;;9.21;100.00
54042;BME280;41156;51.508;5.406;2023-02-11T16:18:37;103461.50;;;9.15;100.00
54042;BME280;41156;51.508;5.406;2023-02-11T16:21:43;103467.03;;;9.13;100.00
54042;BME280;41156;51.508;5.406;2023-02-11T16:24:46;103464.47;;;9.12;100.00
54042;BME280;41156;51.508;5.406;2023-02-11T16:27:50;103462.19;;;9.07;100.00
54042;BME280;41156;51.508;5.406;2023-02-11T16:30:53;103464.31;;;9.03;100.00
54042;BME280;41156;51.508;5.406;2023-02-11T16:33:54;103468.00;;;9.02;100.00
54042;BME280;41156;51.508;5.406;2023-02-11T16:36:54;103464.72;;;8.99;100.00
54042;BME280;41156;51.508;5.406;2023-02-11T16:39:55;103465.88;;;8.96;100.00
54042;BME280;41156;51.508;5.406;2023-02-11T16:42:57;103470.69;;;8.93;100.00
54042;BME280;41156;51.508;5.406;2023-02-11T16:45:57;103469.81;;;8.92;100.00
54042;BME280;41156;51.508;5.406;2023-02-11T16:49:10;103466.56;;;8.88;100.00
54042;BME280;41156;51.508;5.406;2023-02-11T16:52:15;103471.38;;;8.85;100.00
54042;BME280;41156;51.508;5.406;2023-02-11T16:55:17;103484.16;;;8.83;100.00
54042;BME280;41156;51.508;5.406;2023-02-11T16:58:18;103479.19;;;8.78;100.00
54042;BME280;41156;51.508;5.406;2023-02-11T17:01:18;103486.56;;;8.76;100.00
54042;BME280;41156;51.508;5.406;2023-02-11T17:04:24;103480.44;;;8.74;100.00
54042;BME280;41156;51.508;5.406;2023-02-11T17:07:25;103486.13;;;8.71;100.00
54042;BME280;41156;51.508;5.406;2023-02-11T17:10:25;103489.78;;;8.70;100.00
54042;BME280;41156;51.508;5.406;2023-02-11T17:13:26;103486.53;;;8.66;100.00
54042;BME280;41156;51.508;5.406;2023-02-11T17:16:26;103492.06;;;8.65;100.00
54042;BME280;41156;51.508;5.406;2023-02-11T17:19:28;103503.81;;;8.64;100.00
54042;BME280;41156;51.508;5.406;2023-02-11T17:22:29;103502.25;;;8.61;100.00
54042;BME280;41156;51.508;5.406;2023-02-11T17:25:29;103501.53;;;8.59;100.00
54042;BME280;41156;51.508;5.406;2023-02-11T17:28:30;103501.81;;;8.56;100.00
54042;BME280;41156;51.508;5.406;2023-02-11T17:31:31;103504.53;;;8.56;100.00
54042;BME280;41156;51.508;5.406;2023-02-11T17:34:32;103507.34;;;8.55;100.00